• Join FlightAware (Why Join?)
  • Login
  • US Flag 
11:35AM EDT


 

Airport Tracker/Info


-or-


 

Live Flight TrackerFlight Track Log ✈ AWE3418 ✈ 25-Apr-2013 ✈ KPHL - KMHT

Flight Track Log - Related Links

Times and Time Zones

All times are in EDT time to prevent confusion due to time zone crossing. See the AWE3418 flight status page for this flight to view local times or setup timezone preferences in your user account.

Time Position Orientation Groundspeed Altitude Reporting Facility
EDT Latitude Longitude Course Direction KTS MPH feet Rate Location/Type
07:13PM 39.8667 -75.2667 37° Northeast 137 158 800  Level Philadelphia TRACON
07:15PM 39.8000 -75.3333 218° Southwest 224 258 3,800 2,400 Climbing Philadelphia TRACON
07:16PM 39.7835 -74.7006 105° East  Level FlightAware Approximate
07:16PM 39.7500 -75.3667 207° Southwest 269 310 6,800  Level Philadelphia TRACON
07:17PM 39.8956 -74.5878 37° Northeast  Level FlightAware Approximate
07:17PM 39.7167 -75.2833 117° Southeast 300 345 9,400  Level Philadelphia TRACON
07:18PM 40.0117 -74.4883 37° Northeast  Level FlightAware Approximate
07:18PM 39.7333 -75.1667 79° East 314 361 11,800  Level Philadelphia TRACON
07:20PM 39.7614 -74.9783 79° East 340 391 12,100 300 Climbing New York Center
07:21PM 39.7767 -74.8386 82° East 340 391 12,700 1,680 Climbing New York Center
07:22PM 39.7994 -74.7158 76° East 347 399 15,500 2,280 Climbing New York Center
07:23PM 39.8731 -74.6361 40° Northeast 323 372 17,300 1,680 Climbing New York Center
07:24PM 39.9569 -74.5567 36° Northeast 330 380 19,000 1,800 Climbing New York Center
07:25PM 40.0389 -74.4744 38° Northeast 365 420 20,900 1,800 Climbing New York Center
07:26PM 40.1250 -74.3867 38° Northeast 381 438 22,600 1,560 Climbing New York Center
07:27PM 40.2150 -74.2989 37° Northeast 386 444 24,100 1,500 Climbing New York Center
07:28PM 40.3133 -74.2222 31° Northeast 400 460 25,700 1,440 Climbing New York Center
07:29PM 40.4211 -74.1678 21° North 405 466 27,000 600 Climbing New York Center
07:30PM 40.5311 -74.1131 21° North 411 473 27,000  Level New York Center
07:32PM 40.7642 -73.9992 20° North 425 489 27,000  Level Boston Center
07:33PM 40.8731 -73.9442 21° North 420 483 27,000  Level Boston Center
07:34PM 41.0053 -73.8786 21° North 415 478 27,000  Level Boston Center
07:35PM 41.1144 -73.8203 22° Northeast 415 478 27,000  Level Boston Center
07:36PM 41.2250 -73.8033 North 409 471 27,000  Level Boston Center
07:37PM 41.3167 -73.8053 359° North 397 457 27,000  Level Boston Center
07:38PM 41.4522 -73.8111 358° North 397 457 27,000 -360 Level Boston Center
07:39PM 41.5625 -73.8161 358° North 397 457 26,300 -840 Descending Boston Center
07:40PM 41.6708 -73.8214 358° North 397 457 25,400 -660 Descending Boston Center
07:41PM 41.7814 -73.8208 360° North 397 457 25,000 -240 Descending Boston Center
07:42PM 41.8958 -73.8233 359° North 382 440 25,000  Level Boston Center
07:43PM 42.0253 -73.8178 North 382 440 25,000  Level Boston Center
07:44PM 42.1317 -73.8147 North 382 440 25,000 -540 Level Boston Center
07:45PM 42.2378 -73.8169 359° North 382 440 24,000 -1,020 Descending Boston Center
07:46PM 42.3442 -73.8136 North 382 440 23,000 -1,020 Descending Boston Center
07:47PM 42.4464 -73.8103 North 382 440 22,000 -600 Descending Boston Center
07:48PM 42.5464 -73.8097 360° North 370 426 21,900 -600 Descending Boston Center
07:49PM 42.6444 -73.8033 North 355 409 20,900 -960 Descending Boston Center
07:50PM 42.7308 -73.7233 34° Northeast 355 409 20,000 -960 Descending Boston Center
07:51PM 42.7572 -73.5881 75° East 322 371 19,000 -540 Descending Boston Center
07:52PM 42.7586 -73.4497 89° East 343 395 19,000  Level Boston Center
07:53PM 42.7639 -73.3083 87° East 362 417 19,000  Level Boston Center
07:54PM 42.7667 -73.2122 88° East 362 417 19,000  Level Boston Center
07:55PM 42.7739 -73.0311 87° East 362 417 19,000  Level Boston Center
07:56PM 42.7789 -72.8928 87° East 362 417 19,000  Level Boston Center
07:57PM 42.7833 -72.7542 87° East 362 417 19,000  Level Boston Center
07:58PM 42.7858 -72.6325 88° East 362 417 19,000 -900 Level Boston Center
07:59PM 42.7900 -72.4967 88° East 362 417 17,200 -1,800 Descending Boston Center
08:00PM 42.7942 -72.3636 88° East 362 417 15,400 -2,100 Descending Boston Center
08:01PM 42.7983 -72.2478 87° East 322 371 13,100 -2,280 Descending Boston Center
08:02PM 42.8064 -72.1231 85° East 300 345 10,900 -1,860 Descending Boston Center
08:03PM 42.8144 -72.0269 83° East 289 333 9,400 -1,500 Descending Boston Center
08:04PM 42.8222 -71.9164 84° East 276 318 7,900 -1,560 Descending Boston Center
08:05PM 42.8175 -71.8006 93° East 253 291 6,000 -1,200 Descending Boston Center
08:06PM 42.8025 -71.7156 103° East 253 291 5,300 -720 Descending Boston Center
08:07PM 42.7914 -71.6139 98° East 253 291 4,600 -660 Descending Boston Center
08:08PM 42.8053 -71.5403 76° East 236 272 4,000 -540 Descending Boston Center
08:10PM 42.7817 -71.4642 113° Southeast 192 221 3,500 -720 Descending Boston Center
08:11PM 42.7894 -71.3764 83° East 181 208 2,500 -1,020 Descending Boston Center